Joensuu, Suomi

22. syyskuuta 2017 klo 12:45 (EEST) (GMT +0300)
Woods | | Change Station

Kork 295 ft 62.69 °N, 29.82 °E | Updated 34 seconds ago

Sadetta
Sadetta
48.4 °F
Tuntuu kuin 44 °F
N
9.0
Tuuli Suunnaltaan vaihteleva Tuuli ilmansuunnasta Lounas
Gusts 9.0 mph

Tänään
Korkea -- | Matala -- °F
--% Sateen mahd.
Eilen
Korkea -- | Matala -- °F
Precip. -- tuumaa
Ilmanpaine 30.51 tuumaa
Näkyvyys 6.2 mailia
Pilviä Pilvistä 700 ft
Tuulen hyytävyys 44 °F
Kastepiste 46 °F
Ilmankosteus 91%
Sademäärä 0.03 tuumaa
Lumensyvyys Ei saatavilla
6:44 AM 7:00 PM
Kasvava sirppi, 5% visible
METAR EFJO 220920Z AUTO 11008KT 070V140 9999 -SHRA BKN007 08/07 Q1033
Ilmanpaine 30.51 tuumaa
Näkyvyys 6.2 mailia
Pilviä Pilvistä 700 ft
Tuulen hyytävyys 44 °F
Kastepiste 46 °F
Ilmankosteus 91%
Sademäärä 0.03 tuumaa
Lumensyvyys Ei saatavilla
6:44 AM 7:00 PM
Kasvava sirppi, 5% visible
METAR EFJO 220920Z AUTO 11008KT 070V140 9999 -SHRA BKN007 08/07 Q1033

Get Severe Weather Alerts

Thanks for signing up!

Be on the lookout for a verification email in your inbox.

You'll start receiving the daily forecast at 6 AM.

×

10-Day Weather Forecast

×

Almanac

Tähtitiede

Sep. 22, 2017 Nousuaika Laskuaika
Valoisa aika
Porvarillinen hämärä
Nauttinen hämärä
Astronominen hämärä
Kuu
Näkyvän valon pituus
Päivän pituus
Tomorrow will be .
, % of the Moon is Illuminated

Tämän päivän ennätykset

Country Highs Country Lows

Community

WunderPhotos

Category 6

Welcome to Category 6. This is the collective home for Weather Underground's featured writeups by Dr. Jeff Masters (right), Bob Henson (left), Chris Burt, and other regular contributors.

Nearby

Ilmanlaatu

  Ilmanlaatu AQ Index Pollutant
Not available.

Lumensyvyys

Station Depth Korkeus

Maanjäristysaktiivisuus

Paikkakunta Distance Mag. Time & Date
Minimum magnitude displayed is 2.5.

Coastal Water Temperatures

Paikka Lämpötila

Stations

Lähimmät sääasemat

Aseman sijainti Lämpötila Tuulen hyytävyys Kastepiste Ilmankosteus Tuuli Precip. Kork Päivitetty Tyyppi